Nikishka, Alaska
Current Conditions -  °F | °C
As of 8:53 AM on Saturday 25 Oct 2014 (Local Time) from PAEN Reporting Station
Clear Clear  
Wind Chill: 17°   Ceiling: Unl
Heat Index: 17°   Visibility: 10mi
Dew Point: 15°   Wind: 3mph
Humidity: 92%   Direction: 80°E
Pressure: 29.91"   Gusts: NA
Location:  60.7377°N, 151.324°W
Report Text: PAEN 251653Z 08003KT 10SM CLR M08/M09 A2991 RMK AO2 SLP132 T10831094
Loading
Personal Weather Stations






























Interactive Weather Map New forecast layout! Learn more

10-Day Weather Forecast

Advertisements
Track Severe Weather on mobile